Time;durP1;ratioP1;P1;durP2;ratioP2;P2;SDS_P1;SDS_P2;PMS_P1;PMS_P2;Temp;Humidity;BMP_temperature;BMP_pressure;BME280_temperature;BME280_humidity;BME280_pressure;Samples;Min_cycle;Max_cycle;Signal;HPM_P1;HPM_P2
2022/05/15 00:01:44;;;;;;;22.73;6.68;;;;;;;14.20;60.30;101946.09;6235564;23;20016;-83
2022/05/15 00:04:09;;;;;;;23.73;6.53;;;;;;;14.18;59.92;101945.34;6235551;23;20028;-82
2022/05/15 00:06:35;;;;;;;24.80;6.78;;;;;;;14.13;60.66;101941.34;6234769;23;20012;-83
2022/05/15 00:09:00;;;;;;;21.73;6.57;;;;;;;14.13;60.26;101950.19;6237682;23;20008;-82
2022/05/15 00:11:25;;;;;;;27.85;6.53;;;;;;;14.09;60.61;101938.03;6242602;23;20240;-83
2022/05/15 00:13:51;;;;;;;22.83;6.78;;;;;;;14.07;59.88;101937.28;6215655;23;20035;-83
2022/05/15 00:16:18;;;;;;;23.58;7.15;;;;;;;14.03;60.52;101933.97;6235508;23;20004;-82
2022/05/15 00:18:50;;;;;;;22.00;7.00;;;;;;;14.05;60.29;101933.88;6234606;23;20012;-83
2022/05/15 00:21:16;;;;;;;22.60;7.25;;;;;;;14.02;60.22;101929.63;6233071;23;20027;-83
2022/05/15 00:23:59;;;;;;;;;;;;;;;;;;;;;
2022/05/15 00:26:34;;;;;;;25.80;7.65;;;;;;;13.95;59.96;101928.34;6208527;23;20032;-83
2022/05/15 00:29:00;;;;;;;22.63;6.75;;;;;;;13.93;60.72;101927.63;6207270;23;20000;-82
2022/05/15 00:31:26;;;;;;;21.40;7.38;;;;;;;13.86;60.58;101919.22;6231319;23;20333;-82
2022/05/15 00:33:51;;;;;;;25.02;6.95;;;;;;;13.84;60.71;101920.31;6230958;23;20035;-82
2022/05/15 00:36:18;;;;;;;22.27;6.47;;;;;;;13.83;60.87;101927.44;6233915;23;19997;-82
2022/05/15 00:38:43;;;;;;;21.23;6.53;;;;;;;13.82;60.55;101927.56;6233707;23;20000;-83
2022/05/15 00:41:10;;;;;;;21.42;6.40;;;;;;;13.74;61.05;101928.13;6233990;23;20068;-83
2022/05/15 00:43:56;;;;;;;23.05;6.50;;;;;;;13.74;60.17;101919.25;6235788;23;20028;-83
2022/05/15 00:46:28;;;;;;;30.45;7.70;;;;;;;13.75;60.73;101927.16;6235231;23;20028;-82
2022/05/15 00:48:56;;;;;;;25.35;6.78;;;;;;;13.73;60.70;101922.91;6234082;23;20005;-83
2022/05/15 00:51:30;;;;;;;24.38;6.70;;;;;;;13.71;60.51;101923.00;6234787;23;20005;-82
2022/05/15 00:54:09;;;;;;;22.38;6.38;;;;;;;13.66;60.69;101919.81;6236199;23;20001;-82
2022/05/15 00:56:39;;;;;;;23.55;7.43;;;;;;;13.67;60.80;101916.16;6234708;23;20107;-82
2022/05/15 00:59:15;;;;;;;22.48;6.45;;;;;;;13.63;60.79;101920.03;6233856;23;20009;-82
2022/05/15 01:01:41;;;;;;;21.05;6.32;;;;;;;13.60;60.58;101912.25;6235088;23;20000;-82
2022/05/15 01:04:07;;;;;;;20.58;6.63;;;;;;;13.56;61.53;101918.78;6235627;23;19997;-83
2022/05/15 01:06:35;;;;;;;22.67;7.57;;;;;;;13.52;61.65;101918.13;6234348;23;20008;-82
2022/05/15 01:09:02;;;;;;;32.33;7.18;;;;;;;13.51;61.38;101922.63;6234951;23;19997;-82
2022/05/15 01:11:27;;;;;;;21.83;6.35;;;;;;;13.52;61.33;101915.47;6207193;23;20012;-82
2022/05/15 01:13:53;;;;;;;23.23;7.20;;;;;;;13.44;61.55;101924.03;6206287;23;20019;-82
2022/05/15 01:16:23;;;;;;;23.00;6.70;;;;;;;13.39;61.73;101923.50;6233614;23;20005;-82
2022/05/15 01:18:48;;;;;;;22.05;6.82;;;;;;;13.40;61.71;101919.03;6207439;23;20004;-83
2022/05/15 01:21:35;;;;;;;24.00;7.28;;;;;;;13.39;61.27;101915.50;6233565;23;20011;-83
2022/05/15 01:24:05;;;;;;;21.52;7.28;;;;;;;13.32;62.02;101923.09;6240230;23;19988;-83
2022/05/15 01:26:32;;;;;;;29.55;7.20;;;;;;;13.30;62.32;101924.97;6244022;23;20032;-82
2022/05/15 01:28:58;;;;;;;20.45;6.63;;;;;;;13.28;62.54;101928.72;6216024;23;20028;-82
2022/05/15 01:31:25;;;;;;;26.95;7.32;;;;;;;13.22;62.12;101915.81;6235784;23;19997;-82
2022/05/15 01:33:51;;;;;;;26.33;7.55;;;;;;;13.22;62.63;101926.47;6230537;23;20005;-83
2022/05/15 01:36:19;;;;;;;26.25;8.40;;;;;;;13.18;62.62;101923.19;6234198;23;20015;-82
2022/05/15 01:38:45;;;;;;;24.38;7.40;;;;;;;13.20;62.53;101931.06;6233507;23;20005;-82
2022/05/15 01:41:12;;;;;;;23.90;7.10;;;;;;;13.18;62.68;101927.66;6234687;23;20005;-82
2022/05/15 01:43:39;;;;;;;20.73;6.18;;;;;;;13.16;62.68;101926.94;6230152;23;20072;-83
2022/05/15 01:46:05;;;;;;;27.13;6.88;;;;;;;13.11;62.80;101930.75;6233711;23;20048;-82
2022/05/15 01:48:34;;;;;;;29.23;7.50;;;;;;;13.06;62.88;101922.22;6239909;23;20012;-81
2022/05/15 01:50:59;;;;;;;21.83;6.87;;;;;;;13.13;62.78;101930.66;6238787;23;20001;-82
2022/05/15 01:53:24;;;;;;;24.88;7.78;;;;;;;13.11;62.62;101928.09;6235617;23;20240;-81
2022/05/15 01:55:52;;;;;;;22.35;7.18;;;;;;;13.06;62.99;101924.06;6234293;23;20000;-81
2022/05/15 01:58:17;;;;;;;27.08;7.20;;;;;;;13.02;63.02;101915.38;6234630;23;20007;-82
2022/05/15 02:00:43;;;;;;;25.73;7.40;;;;;;;13.03;62.66;101926.94;6233248;23;20451;-81
2022/05/15 02:03:08;;;;;;;23.02;7.60;;;;;;;12.98;63.42;101913.91;6231870;23;20001;-82
2022/05/15 02:05:33;;;;;;;19.65;6.55;;;;;;;12.96;63.61;101915.84;6232211;23;20000;-82
2022/05/15 02:07:59;;;;;;;26.40;7.22;;;;;;;12.90;63.75;101911.75;6180071;23;20035;-81
2022/05/15 02:10:24;;;;;;;21.08;6.72;;;;;;;12.91;62.94;101913.47;6205095;23;20139;-82
2022/05/15 02:12:50;;;;;;;19.83;7.47;;;;;;;12.88;63.69;101907.50;6234338;23;20005;-82
2022/05/15 02:15:15;;;;;;;23.15;6.85;;;;;;;12.87;63.73;101906.66;6234298;23;20015;-82
2022/05/15 02:17:41;;;;;;;28.50;7.53;;;;;;;12.89;63.79;101906.53;6233747;23;20001;-82
2022/05/15 02:20:10;;;;;;;23.20;6.93;;;;;;;12.85;63.26;101907.72;6232708;23;19984;-82
2022/05/15 02:22:36;;;;;;;21.30;7.30;;;;;;;12.83;63.19;101902.50;6233694;23;20011;-82
2022/05/15 02:25:01;;;;;;;23.80;7.07;;;;;;;12.82;63.99;101907.94;6231877;23;20005;-81
2022/05/15 02:27:27;;;;;;;22.58;7.13;;;;;;;12.78;64.19;101908.13;6234143;23;20032;-81
2022/05/15 02:29:55;;;;;;;19.38;6.47;;;;;;;12.72;63.95;101905.91;6238458;23;20000;-82
2022/05/15 02:32:21;;;;;;;26.57;7.17;;;;;;;12.74;64.36;101906.66;6238883;23;20008;-81
2022/05/15 02:34:46;;;;;;;22.08;7.05;;;;;;;12.69;64.07;101915.91;6241492;23;19992;-82
2022/05/15 02:37:11;;;;;;;24.35;6.68;;;;;;;12.69;64.62;101915.91;6239303;23;20020;-82
2022/05/15 02:39:36;;;;;;;25.10;7.38;;;;;;;12.66;64.46;101908.16;6239810;23;20032;-82
2022/05/15 02:42:02;;;;;;;17.75;6.15;;;;;;;12.64;64.63;101913.59;6238109;23;20003;-82
2022/05/15 02:44:29;;;;;;;25.55;7.13;;;;;;;12.60;64.92;101909.41;6206966;23;20001;-82
2022/05/15 02:46:55;;;;;;;25.95;6.55;;;;;;;12.51;64.99;101899.38;6234237;23;20005;-82
2022/05/15 02:52:05;;;;;;;24.95;7.20;;;;;;;12.48;65.00;101907.59;6235287;23;20513;-81
2022/05/15 02:54:33;;;;;;;23.60;6.50;;;;;;;12.42;65.56;101910.66;6234588;23;20000;-81
2022/05/15 02:56:59;;;;;;;26.85;6.90;;;;;;;12.37;65.42;101901.19;6234329;23;20003;-81
2022/05/15 02:59:24;;;;;;;22.02;6.65;;;;;;;12.42;65.18;101902.66;6238009;23;20016;-82
2022/05/15 03:01:50;;;;;;;25.42;7.28;;;;;;;12.37;65.65;101892.31;6233970;23;20007;-81
2022/05/15 03:04:15;;;;;;;26.35;8.80;;;;;;;12.35;65.43;101889.75;6228332;23;20024;-82
2022/05/15 03:06:41;;;;;;;28.00;7.13;;;;;;;12.34;65.73;101888.06;6229718;23;20050;-81
2022/05/15 03:09:06;;;;;;;20.73;6.90;;;;;;;12.30;65.58;101880.38;6231226;23;20000;-82
2022/05/15 03:11:32;;;;;;;24.15;7.00;;;;;;;12.30;65.69;101883.88;6233736;23;20015;-81
2022/05/15 03:13:57;;;;;;;23.38;7.00;;;;;;;12.31;65.70;101887.41;6235718;23;20083;-81
2022/05/15 03:16:23;;;;;;;27.05;7.28;;;;;;;12.23;66.06;101879.94;6231767;23;20445;-82
2022/05/15 03:18:50;;;;;;;22.05;6.45;;;;;;;12.24;65.88;101884.31;6231229;23;20000;-82
2022/05/15 03:21:28;;;;;;;24.83;6.93;;;;;;;12.17;66.43;101885.66;6233317;23;20011;-81
2022/05/15 03:24:05;;;;;;;24.88;6.97;;;;;;;12.21;66.04;101895.16;6233029;23;20484;-82
2022/05/15 03:26:32;;;;;;;24.55;6.53;;;;;;;12.15;65.99;101892.91;6232333;23;20476;-82
2022/05/15 03:28:58;;;;;;;26.52;6.65;;;;;;;12.10;66.66;101889.69;6233122;23;20319;-82
2022/05/15 03:31:24;;;;;;;21.88;7.28;;;;;;;12.06;66.90;101883.72;6232893;23;20008;-81
2022/05/15 03:33:49;;;;;;;20.90;6.53;;;;;;;12.09;66.17;101886.19;6205254;23;20003;-82
2022/05/15 03:36:16;;;;;;;24.50;7.30;;;;;;;12.05;66.63;101879.34;6233191;23;19996;-81
2022/05/15 03:38:44;;;;;;;22.85;6.45;;;;;;;12.07;66.45;101889.88;6209169;23;20012;-81
2022/05/15 03:41:09;;;;;;;23.65;6.68;;;;;;;12.03;66.86;101884.75;6234427;23;20011;-82
2022/05/15 03:43:35;;;;;;;24.20;6.93;;;;;;;12.01;67.14;101892.00;6233196;23;20000;-82
2022/05/15 03:46:02;;;;;;;24.80;7.90;;;;;;;11.93;67.48;101877.50;6231897;23;20058;-82
2022/05/15 03:48:27;;;;;;;30.08;7.57;;;;;;;11.93;67.52;101886.31;6233796;23;20011;-82
2022/05/15 03:50:53;;;;;;;24.67;6.63;;;;;;;11.94;66.97;101880.06;6234702;23;20001;-81
2022/05/15 03:53:18;;;;;;;24.98;7.55;;;;;;;11.90;67.33;101883.00;6233670;23;20000;-82
2022/05/15 03:55:44;;;;;;;29.70;7.88;;;;;;;11.87;67.56;101885.84;6209664;23;20005;-82
2022/05/15 03:58:09;;;;;;;27.15;6.88;;;;;;;11.88;67.68;101882.25;6233747;23;20107;-82
2022/05/15 04:00:34;;;;;;;20.55;7.03;;;;;;;11.84;67.59;101878.94;6236319;23;20330;-82
2022/05/15 04:03:00;;;;;;;22.33;7.50;;;;;;;11.86;67.53;101887.66;6235881;23;20005;-82
2022/05/15 04:05:27;;;;;;;21.65;7.38;;;;;;;11.79;67.73;101871.25;6209005;23;20005;-82
2022/05/15 04:07:53;;;;;;;23.30;6.72;;;;;;;11.84;67.64;101884.25;6236069;23;19996;-81
2022/05/15 04:10:21;;;;;;;26.48;7.65;;;;;;;11.84;68.36;101890.44;6236366;23;20330;-82
2022/05/15 04:12:46;;;;;;;20.35;6.80;;;;;;;11.82;68.43;101896.78;6237373;23;20028;-82
2022/05/15 04:15:13;;;;;;;26.08;7.53;;;;;;;11.82;67.16;101897.66;6211051;23;20012;-82
2022/05/15 04:17:48;;;;;;;29.95;7.65;;;;;;;11.80;68.04;101898.69;6211312;23;20062;-82
2022/05/15 04:20:17;;;;;;;24.15;7.43;;;;;;;11.80;68.15;101899.53;6238356;23;20027;-82
2022/05/15 04:22:42;;;;;;;24.83;7.53;;;;;;;11.82;68.07;101895.00;6212537;23;20016;-81
2022/05/15 04:25:10;;;;;;;31.13;7.35;;;;;;;11.82;68.17;101900.31;6239353;23;20000;-82
2022/05/15 04:27:36;;;;;;;27.63;8.13;;;;;;;11.77;68.27;101894.41;6237461;23;20009;-81
2022/05/15 04:30:04;;;;;;;28.35;7.55;;;;;;;11.80;68.32;101898.69;6235846;23;20031;-82
2022/05/15 04:32:29;;;;;;;22.20;7.38;;;;;;;11.75;68.33;101888.34;6238581;23;20008;-81
2022/05/15 04:34:54;;;;;;;27.45;7.13;;;;;;;11.76;68.46;101887.41;6244663;23;20001;-82
2022/05/15 04:37:20;;;;;;;24.42;7.63;;;;;;;11.77;68.98;101894.41;6217731;23;20036;-82
2022/05/15 04:39:45;;;;;;;23.33;7.28;;;;;;;11.75;68.62;101893.66;6241411;23;20000;-82
2022/05/15 04:42:11;;;;;;;26.33;7.55;;;;;;;11.80;68.78;101885.41;6235831;23;20001;-81
2022/05/15 04:44:37;;;;;;;28.45;7.40;;;;;;;11.80;68.71;101890.72;6236054;23;20056;-82
2022/05/15 04:47:02;;;;;;;25.50;7.70;;;;;;;11.82;68.79;101894.13;6206984;23;20013;-82
2022/05/15 04:49:28;;;;;;;24.10;7.88;;;;;;;11.78;68.91;101885.50;6233425;23;20008;-82
2022/05/15 04:51:53;;;;;;;23.70;7.10;;;;;;;11.80;69.16;101877.41;6207826;23;20001;-82
2022/05/15 04:54:18;;;;;;;24.27;8.05;;;;;;;11.82;69.12;101884.34;6235930;23;20330;-81
2022/05/15 04:56:44;;;;;;;27.20;8.00;;;;;;;11.84;69.33;101884.25;6242520;23;20064;-81
2022/05/15 04:59:09;;;;;;;21.23;7.10;;;;;;;11.88;69.14;101887.56;6214153;23;20043;-82
2022/05/15 05:01:35;;;;;;;28.20;7.88;;;;;;;11.92;69.35;101889.94;6237704;23;20009;-82
2022/05/15 05:04:01;;;;;;;26.23;8.15;;;;;;;11.93;68.98;101888.16;6234905;23;20004;-82
2022/05/15 05:06:28;;;;;;;24.65;7.45;;;;;;;11.98;68.92;101894.03;6235705;23;20020;-83
2022/05/15 05:08:54;;;;;;;28.58;7.78;;;;;;;11.99;68.88;101890.38;6237250;23;20008;-81
2022/05/15 05:11:20;;;;;;;23.83;7.68;;;;;;;12.03;68.84;101895.41;6211020;23;20057;-83
2022/05/15 05:13:45;;;;;;;27.85;8.23;;;;;;;12.07;68.82;101896.06;6230784;23;20005;-82
2022/05/15 05:16:11;;;;;;;25.75;7.97;;;;;;;12.14;68.51;101901.84;6234294;23;20030;-83
2022/05/15 05:18:36;;;;;;;27.50;8.57;;;;;;;12.27;68.84;101909.88;6225808;23;19997;-84
2022/05/15 05:21:03;;;;;;;27.20;7.72;;;;;;;12.39;68.35;101904.59;6225850;23;20012;-83
2022/05/15 05:23:28;;;;;;;31.75;8.80;;;;;;;12.52;68.50;101901.06;6226234;23;20311;-83
2022/05/15 05:25:54;;;;;;;28.55;8.05;;;;;;;12.63;67.95;101889.69;6223626;23;20023;-83
2022/05/15 05:28:20;;;;;;;25.85;7.40;;;;;;;12.82;67.44;101895.44;6196572;23;20004;-83
2022/05/15 05:30:46;;;;;;;26.75;9.00;;;;;;;13.01;66.56;101892.38;6224869;23;20008;-83
2022/05/15 05:33:11;;;;;;;24.83;8.35;;;;;;;13.20;66.41;101886.56;6227067;23;20008;-82
2022/05/15 05:35:37;;;;;;;22.85;7.95;;;;;;;13.45;65.81;101891.03;6230401;23;20001;-83
2022/05/15 05:38:04;;;;;;;24.83;8.60;;;;;;;13.62;65.26;101879.16;6227074;23;20023;-83
2022/05/15 05:40:29;;;;;;;27.65;8.15;;;;;;;13.81;64.95;101885.81;6230022;23;20032;-84
2022/05/15 05:42:55;;;;;;;24.77;8.02;;;;;;;13.97;64.35;101885.50;6231583;23;20001;-84
2022/05/15 05:45:20;;;;;;;21.63;7.53;;;;;;;14.20;63.80;101889.13;6231064;23;20394;-83
2022/05/15 05:47:47;;;;;;;21.80;7.75;;;;;;;14.51;63.48;101889.50;6206796;23;20005;-82
2022/05/15 05:50:14;;;;;;;26.63;8.27;;;;;;;14.71;62.50;101893.34;6238829;23;20016;-84
2022/05/15 05:52:40;;;;;;;25.67;7.90;;;;;;;14.82;61.90;101893.31;6242970;23;19999;-82
2022/05/15 05:55:10;;;;;;;24.05;7.80;;;;;;;14.98;61.28;101888.47;6243635;23;20016;-83
2022/05/15 05:57:36;;;;;;;23.38;7.50;;;;;;;15.11;60.98;101890.22;6214283;23;20005;-83
2022/05/15 06:00:03;;;;;;;22.40;7.35;;;;;;;15.32;60.35;101887.63;6241055;22;20044;-84
2022/05/15 06:02:28;;;;;;;27.50;8.15;;;;;;;15.47;60.12;101882.88;6242771;23;20039;-84
2022/05/15 06:04:57;;;;;;;22.87;7.47;;;;;;;15.59;59.24;101883.69;6242085;23;20013;-83
2022/05/15 06:07:25;;;;;;;18.33;7.60;;;;;;;15.68;58.74;101893.66;6242324;23;20295;-83
2022/05/15 06:09:54;;;;;;;23.40;8.50;;;;;;;15.84;58.77;101886.09;6242462;23;20027;-85
2022/05/15 06:12:22;;;;;;;23.50;7.70;;;;;;;15.93;58.27;101884.50;6242678;23;20243;-84
2022/05/15 06:14:54;;;;;;;19.92;8.13;;;;;;;16.07;57.96;101880.66;6242182;23;20001;-83
2022/05/15 06:17:29;;;;;;;23.30;8.30;;;;;;;16.17;57.43;101878.94;6214803;23;19985;-84
2022/05/15 06:20:06;;;;;;;20.85;7.28;;;;;;;16.35;57.66;101881.03;6241879;23;19992;-84
2022/05/15 06:22:42;;;;;;;19.40;7.72;;;;;;;16.52;57.08;101877.78;6242320;23;20072;-85
2022/05/15 06:25:21;;;;;;;22.63;8.25;;;;;;;16.73;57.54;101871.53;6234627;23;20433;-82
2022/05/15 06:27:47;;;;;;;24.38;8.15;;;;;;;16.94;56.20;101890.31;6172872;23;1365521;-85
2022/05/15 06:30:14;;;;;;;23.85;8.38;;;;;;;17.05;55.88;101887.53;6213866;23;20024;-80
2022/05/15 06:32:40;;;;;;;22.00;8.23;;;;;;;17.18;54.73;101880.09;6197661;23;20018;-79
2022/05/15 06:35:11;;;;;;;24.55;7.75;;;;;;;17.34;54.97;101876.06;6223384;23;20091;-79
2022/05/15 06:37:36;;;;;;;19.23;7.57;;;;;;;17.58;54.52;101875.69;6171483;23;20011;-76
2022/05/15 06:40:03;;;;;;;21.60;7.88;;;;;;;17.67;53.60;101874.88;6226025;23;20008;-77
2022/05/15 06:42:29;;;;;;;22.92;8.43;;;;;;;17.86;53.20;101879.41;6225865;23;20445;-79
2022/05/15 06:44:55;;;;;;;20.88;8.50;;;;;;;18.08;53.34;101869.41;6228148;23;20044;-79
2022/05/15 06:47:21;;;;;;;20.17;7.80;;;;;;;18.28;52.60;101870.25;6228697;23;20004;-77
2022/05/15 06:49:49;;;;;;;21.67;7.72;;;;;;;18.52;51.61;101877.88;6204908;23;20357;-79
2022/05/15 06:52:14;;;;;;;18.25;7.43;;;;;;;18.63;51.05;101868.78;6178861;23;20013;-79
2022/05/15 06:54:40;;;;;;;17.48;8.43;;;;;;;18.82;50.59;101878.66;6230977;23;20011;-79
2022/05/15 06:59:49;;;;;;;22.55;8.30;;;;;;;19.18;49.58;101876.94;6240027;23;20027;-81
2022/05/15 07:02:14;;;;;;;16.48;7.22;;;;;;;19.35;49.70;101874.47;6241943;23;20004;-81
2022/05/15 07:04:43;;;;;;;22.50;7.72;;;;;;;19.54;49.21;101879.75;6241818;23;20008;-80
2022/05/15 07:07:08;;;;;;;20.67;7.47;;;;;;;19.74;48.04;101879.63;6234666;23;20012;-79
2022/05/15 07:09:34;;;;;;;18.23;7.53;;;;;;;19.96;48.07;101879.19;6225421;23;20023;-77
2022/05/15 07:11:59;;;;;;;17.30;6.95;;;;;;;20.10;47.45;101879.66;6223789;23;20240;-76
2022/05/15 07:14:25;;;;;;;21.73;7.47;;;;;;;20.18;46.61;101885.13;6222195;23;20080;-78
2022/05/15 07:16:50;;;;;;;19.65;6.90;;;;;;;20.37;46.59;101889.50;6197046;23;20031;-78
2022/05/15 07:19:15;;;;;;;20.42;7.40;;;;;;;20.71;46.26;101888.75;6221433;23;20075;-78
2022/05/15 07:21:43;;;;;;;20.27;7.17;;;;;;;20.92;45.88;101896.50;6222986;23;20079;-77
2022/05/15 07:24:09;;;;;;;22.00;7.65;;;;;;;21.07;44.92;101889.47;6222376;23;20254;-77
2022/05/15 07:26:35;;;;;;;15.20;6.30;;;;;;;21.33;45.00;101880.44;6224190;23;20020;-77
2022/05/15 07:29:00;;;;;;;36.13;7.75;;;;;;;21.51;43.70;101882.25;6222055;23;20024;-78
2022/05/15 07:31:26;;;;;;;16.02;6.30;;;;;;;21.87;43.50;101887.41;6226188;23;20007;-77
2022/05/15 07:33:51;;;;;;;15.73;6.57;;;;;;;22.12;43.70;101883.69;6227933;23;20040;-77
2022/05/15 07:36:17;;;;;;;16.75;6.32;;;;;;;22.54;42.55;101882.69;6226834;23;20255;-77
2022/05/15 07:38:42;;;;;;;17.38;6.65;;;;;;;22.80;41.86;101873.50;6232956;23;20020;-79
2022/05/15 07:41:08;;;;;;;16.17;6.43;;;;;;;23.00;41.18;101871.25;6241503;23;20017;-77
2022/05/15 07:43:34;;;;;;;13.80;6.40;;;;;;;23.23;40.06;101876.78;6241555;23;20112;-79
2022/05/15 07:45:59;;;;;;;16.55;6.60;;;;;;;23.40;39.02;101876.72;6233724;23;19996;-82
2022/05/15 07:48:24;;;;;;;18.92;6.80;;;;;;;23.63;38.83;101882.16;6231329;23;20008;-82
2022/05/15 07:50:52;;;;;;;15.20;5.80;;;;;;;23.81;38.58;101874.59;6238690;23;20059;-83
2022/05/15 07:53:18;;;;;;;18.13;6.75;;;;;;;23.96;37.69;101874.66;6243100;23;20242;-83
2022/05/15 07:55:43;;;;;;;17.73;6.63;;;;;;;24.00;37.33;101872.47;6243837;23;19989;-83
2022/05/15 07:58:09;;;;;;;16.52;6.68;;;;;;;24.36;37.20;101867.22;6218281;23;19989;-83
2022/05/15 08:00:34;;;;;;;16.38;6.55;;;;;;;24.51;36.93;101869.09;6243237;23;19988;-81
2022/05/15 08:03:10;;;;;;;14.15;6.15;;;;;;;24.73;37.03;101875.53;6243176;23;19988;-81
2022/05/15 08:08:21;;;;;;;15.68;6.63;;;;;;;25.10;35.54;101866.44;6241201;23;20028;-80
2022/05/15 08:10:47;;;;;;;16.38;5.70;;;;;;;25.42;35.32;101858.06;6240842;23;20016;-81
2022/05/15 08:13:16;;;;;;;17.52;6.57;;;;;;;25.57;34.62;101853.44;6215972;23;20001;-81
2022/05/15 08:15:42;;;;;;;16.10;6.25;;;;;;;25.88;34.05;101856.88;6242522;23;20004;-81
2022/05/15 08:23:45;;;;;;;16.98;6.38;;;;;;;26.29;34.03;101846.16;6240062;23;20072;-80
2022/05/15 08:26:11;;;;;;;13.98;6.35;;;;;;;26.52;33.71;101835.00;6212714;23;20024;-80
2022/05/15 08:28:39;;;;;;;16.65;5.97;;;;;;;26.67;33.02;101834.94;6240751;23;20052;-81
2022/05/15 08:31:06;;;;;;;;;;;;;;;27.04;35.38;101834.69;6241226;23;19988;-81
2022/05/15 08:33:33;;;;;;;14.48;5.57;;;;;;;27.08;31.36;101838.69;6243693;23;19904;-81
2022/05/15 08:35:58;;;;;;;15.02;6.82;;;;;;;27.08;30.28;101827.78;6243980;23;20005;-81
2022/05/15 08:38:23;;;;;;;16.65;5.30;;;;;;;27.04;30.40;101829.25;6243503;23;19992;-81
2022/05/15 08:41:00;;;;;;;16.02;5.10;;;;;;;27.29;31.52;101821.41;6243842;23;19996;-81
2022/05/15 08:43:44;;;;;;;14.93;5.55;;;;;;;27.57;32.27;101817.69;6242945;23;20092;-80
2022/05/15 08:46:34;;;;;;;16.17;5.38;;;;;;;27.76;31.69;101821.50;6241870;23;19988;-82
2022/05/15 08:49:15;;;;;;;14.05;5.60;;;;;;;27.80;30.82;101818.13;6217374;23;20005;-81
2022/05/15 08:51:55;;;;;;;16.58;5.30;;;;;;;28.09;29.55;101815.25;6242479;23;20012;-80
2022/05/15 08:54:23;;;;;;;13.07;5.90;;;;;;;27.95;29.08;101811.69;6241585;23;20035;-80
2022/05/15 08:56:50;;;;;;;;;;;;;;;28.34;31.95;101813.53;6243016;23;20374;-81
2022/05/15 08:59:38;;;;;;;11.77;5.00;;;;;;;28.24;30.10;101811.25;6243242;23;19912;-81
2022/05/15 09:02:05;;;;;;;19.35;6.05;;;;;;;28.33;27.68;101802.81;6244443;23;20011;-81
2022/05/15 09:04:31;;;;;;;11.90;5.50;;;;;;;28.52;27.60;101801.94;6243203;23;20004;-81
2022/05/15 09:07:13;;;;;;;11.27;5.38;;;;;;;28.51;27.29;101804.88;6244003;23;20016;-80
2022/05/15 09:10:21;;;;;;;12.70;5.25;;;;;;;28.68;27.97;101805.28;6244154;23;20011;-81
2022/05/15 09:13:09;;;;;;;14.43;5.25;;;;;;;28.67;27.99;101807.19;6217867;23;19993;-80
2022/05/15 09:15:55;;;;;;;8.30;4.53;;;;;;;28.80;26.30;101809.03;6242890;23;20009;-81
2022/05/15 09:18:21;;;;;;;10.25;4.25;;;;;;;28.60;24.23;101809.09;6217301;23;19997;-80
2022/05/15 09:20:57;;;;;;;13.13;4.47;;;;;;;28.55;24.41;101801.50;6240421;23;20012;-80
2022/05/15 09:23:38;;;;;;;11.65;4.43;;;;;;;28.70;26.08;101803.19;6240785;23;19993;-81
2022/05/15 09:26:06;;;;;;;9.05;4.38;;;;;;;28.81;25.77;101802.50;6234075;23;20011;-81
2022/05/15 09:28:41;;;;;;;12.82;4.70;;;;;;;29.18;26.76;101799.22;6208637;23;20008;-80
2022/05/15 09:31:23;;;;;;;13.00;4.85;;;;;;;29.46;25.98;101794.22;6234782;23;20000;-81
2022/05/15 09:33:54;;;;;;;17.45;5.03;;;;;;;29.55;25.12;101789.31;6208545;23;20043;-80
2022/05/15 09:36:34;;;;;;;13.40;4.20;;;;;;;29.66;25.16;101790.47;6206461;23;20142;-80
2022/05/15 09:39:09;;;;;;;11.13;3.85;;;;;;;29.87;24.78;101792.88;6236129;23;20084;-81
2022/05/15 09:44:29;;;;;;;16.58;4.80;;;;;;;29.88;23.92;101774.56;6243695;23;20043;-81
2022/05/15 09:47:20;;;;;;;10.70;3.92;;;;;;;29.95;23.16;101778.06;6244311;23;19997;-81
2022/05/15 09:49:45;;;;;;;11.32;3.88;;;;;;;30.06;22.67;101773.75;6243028;23;20000;-81
2022/05/15 09:52:17;;;;;;;9.90;4.00;;;;;;;30.16;22.93;101778.69;6216508;23;20024;-81
2022/05/15 09:54:45;;;;;;;9.25;3.63;;;;;;;30.26;22.02;101770.81;6216617;23;20042;-81
2022/05/15 09:57:31;;;;;;;10.25;3.53;;;;;;;30.49;22.98;101766.59;6242869;23;20004;-80
2022/05/15 09:59:59;;;;;;;8.02;2.80;;;;;;;30.72;22.52;101766.72;6237999;23;19989;-80
2022/05/15 10:02:40;;;;;;;11.48;3.58;;;;;;;30.69;23.27;101769.91;6236331;23;20061;-80
2022/05/15 10:05:16;;;;;;;9.55;3.70;;;;;;;30.75;23.05;101771.75;6238441;23;19992;-79
2022/05/15 10:07:50;;;;;;;9.55;3.28;;;;;;;30.78;21.81;101774.03;6240388;23;20009;-79
2022/05/15 10:10:19;;;;;;;11.48;2.90;;;;;;;30.86;21.38;101769.28;6237369;23;20016;-80
2022/05/15 10:12:49;;;;;;;10.25;3.60;;;;;;;31.00;21.44;101773.59;6212730;23;20036;-79
2022/05/15 10:15:16;;;;;;;9.10;3.22;;;;;;;31.19;20.53;101768.88;6237704;23;20005;-80
2022/05/15 10:17:52;;;;;;;9.55;3.38;;;;;;;31.22;20.70;101759.34;6239583;23;20005;-79
2022/05/15 10:20:34;;;;;;;11.18;3.33;;;;;;;31.53;21.83;101753.59;6233337;23;20009;-81
2022/05/15 10:23:17;;;;;;;11.93;3.63;;;;;;;31.50;20.59;101756.78;6231311;23;20000;-80
2022/05/15 10:25:52;;;;;;;11.73;3.30;;;;;;;31.77;20.20;101756.38;6233377;23;20005;-79
2022/05/15 10:28:44;;;;;;;11.63;3.20;;;;;;;31.68;20.83;101752.31;6230454;23;20142;-80
2022/05/15 10:31:28;;;;;;;10.57;3.35;;;;;;;31.62;20.66;101754.09;6230569;23;20007;-80
2022/05/15 10:34:02;;;;;;;8.68;3.05;;;;;;;31.49;19.16;101748.78;6206910;23;20001;-79
2022/05/15 10:36:46;;;;;;;8.02;2.63;;;;;;;31.46;19.72;101743.75;6228378;23;20005;-79
2022/05/15 10:39:36;;;;;;;10.10;3.30;;;;;;;31.45;19.47;101737.44;6229079;23;20015;-80
2022/05/15 10:42:27;;;;;;;8.10;3.03;;;;;;;31.70;20.15;101741.94;6232088;23;20008;-80
2022/05/15 10:45:21;;;;;;;10.95;3.38;;;;;;;31.57;20.00;101740.22;6161304;23;20031;-80
2022/05/15 10:48:08;;;;;;;9.48;3.25;;;;;;;31.13;20.26;101723.19;6204120;23;20011;-80
2022/05/15 10:50:52;;;;;;;9.32;3.00;;;;;;;31.15;20.51;101724.59;6231344;23;20005;-80
2022/05/15 10:59:16;;;;;;;10.05;3.35;;;;;;;31.20;20.49;101726.66;6236779;23;20497;-80
2022/05/15 11:02:04;;;;;;;10.27;3.28;;;;;;;31.35;20.92;101715.22;6231442;23;20070;-81
2022/05/15 11:04:39;;;;;;;10.02;3.08;;;;;;;31.42;19.74;101721.44;6233441;23;20056;-80
2022/05/15 11:07:22;;;;;;;10.57;3.30;;;;;;;31.39;19.96;101721.91;6236501;23;20038;-80
2022/05/15 11:10:01;;;;;;;13.00;3.22;;;;;;;31.53;19.80;101726.16;6239441;23;19991;-80
2022/05/15 11:12:48;;;;;;;10.48;2.83;;;;;;;31.57;20.04;101729.25;6215437;23;20055;-80
2022/05/15 11:15:34;;;;;;;9.93;3.20;;;;;;;31.38;19.07;101720.25;6241086;23;19992;-80
2022/05/15 11:18:37;;;;;;;9.40;3.25;;;;;;;31.85;20.45;101712.06;6239944;23;19981;-80
2022/05/15 11:21:09;;;;;;;9.32;2.67;;;;;;;31.90;20.22;101708.63;6234535;23;20003;-81
2022/05/15 11:23:43;;;;;;;13.13;3.15;;;;;;;31.88;19.62;101710.78;6238142;23;20008;-80
2022/05/15 11:26:21;;;;;;;9.13;3.03;;;;;;;32.21;20.14;101701.94;6229488;23;20017;-80
2022/05/15 11:29:02;;;;;;;13.18;3.10;;;;;;;32.32;19.48;101689.22;6232414;23;20001;-80
2022/05/15 11:31:32;;;;;;;8.85;2.75;;;;;;;31.94;18.68;101687.81;6234549;23;20036;-80
2022/05/15 11:33:57;;;;;;;7.93;2.75;;;;;;;31.91;18.07;101683.66;6211128;23;20035;-80
2022/05/15 11:36:26;;;;;;;10.57;3.20;;;;;;;31.97;18.25;101681.00;6234461;23;20005;-80
2022/05/15 11:39:13;;;;;;;11.73;3.20;;;;;;;32.03;19.77;101678.13;6234151;23;20004;-79
2022/05/15 11:41:38;;;;;;;9.82;2.70;;;;;;;31.79;19.89;101677.31;6234577;23;20008;-78
2022/05/15 11:44:08;;;;;;;9.97;3.07;;;;;;;31.80;17.64;101667.19;6206910;23;20004;-79
2022/05/15 11:46:46;;;;;;;8.85;2.83;;;;;;;31.84;19.34;101662.88;6231466;23;20009;-80
2022/05/15 11:49:27;;;;;;;9.55;3.03;;;;;;;31.87;18.75;101663.22;6204405;23;20008;-80
2022/05/15 11:52:11;;;;;;;6.32;2.15;;;;;;;31.97;18.73;101657.09;6230528;23;20024;-79
2022/05/15 11:54:42;;;;;;;11.13;2.80;;;;;;;32.08;17.63;101656.28;6229833;23;20007;-79